sensor_id;sensor_type;location;lat;lon;timestamp;P1;durP1;ratioP1;P2;durP2;ratioP2
11328;SDS011;5719;42.714;23.732;2024-03-07T00:01:48;32.40;;;16.42;;
11328;SDS011;5719;42.714;23.732;2024-03-07T00:04:15;28.98;;;16.02;;
11328;SDS011;5719;42.714;23.732;2024-03-07T00:06:42;30.00;;;16.48;;
11328;SDS011;5719;42.714;23.732;2024-03-07T00:09:08;24.58;;;15.60;;
11328;SDS011;5719;42.714;23.732;2024-03-07T00:11:36;25.05;;;16.35;;
11328;SDS011;5719;42.714;23.732;2024-03-07T00:14:03;25.23;;;15.30;;
11328;SDS011;5719;42.714;23.732;2024-03-07T00:16:32;23.70;;;14.93;;
11328;SDS011;5719;42.714;23.732;2024-03-07T00:18:59;25.88;;;14.57;;
11328;SDS011;5719;42.714;23.732;2024-03-07T00:21:26;23.27;;;14.65;;
11328;SDS011;5719;42.714;23.732;2024-03-07T00:23:53;23.55;;;15.35;;
11328;SDS011;5719;42.714;23.732;2024-03-07T00:26:20;27.13;;;14.13;;
11328;SDS011;5719;42.714;23.732;2024-03-07T00:28:47;23.52;;;13.90;;
11328;SDS011;5719;42.714;23.732;2024-03-07T00:31:13;21.85;;;13.07;;
11328;SDS011;5719;42.714;23.732;2024-03-07T00:33:42;21.15;;;12.80;;
11328;SDS011;5719;42.714;23.732;2024-03-07T00:36:09;24.98;;;13.75;;
11328;SDS011;5719;42.714;23.732;2024-03-07T00:38:36;21.95;;;13.43;;
11328;SDS011;5719;42.714;23.732;2024-03-07T00:41:03;26.05;;;14.63;;
11328;SDS011;5719;42.714;23.732;2024-03-07T00:43:29;25.38;;;14.50;;
11328;SDS011;5719;42.714;23.732;2024-03-07T00:45:56;27.23;;;14.27;;
11328;SDS011;5719;42.714;23.732;2024-03-07T00:48:23;19.92;;;13.85;;
11328;SDS011;5719;42.714;23.732;2024-03-07T00:50:52;26.55;;;14.63;;
11328;SDS011;5719;42.714;23.732;2024-03-07T00:53:18;26.48;;;14.25;;
11328;SDS011;5719;42.714;23.732;2024-03-07T00:55:45;28.77;;;15.45;;
11328;SDS011;5719;42.714;23.732;2024-03-07T00:58:12;27.60;;;15.32;;
11328;SDS011;5719;42.714;23.732;2024-03-07T01:00:39;27.90;;;14.68;;
11328;SDS011;5719;42.714;23.732;2024-03-07T01:03:08;29.88;;;15.68;;
11328;SDS011;5719;42.714;23.732;2024-03-07T01:05:36;29.02;;;14.02;;
11328;SDS011;5719;42.714;23.732;2024-03-07T01:08:05;25.35;;;14.10;;
11328;SDS011;5719;42.714;23.732;2024-03-07T01:10:32;23.80;;;14.48;;
11328;SDS011;5719;42.714;23.732;2024-03-07T01:12:59;27.92;;;14.70;;
11328;SDS011;5719;42.714;23.732;2024-03-07T01:15:27;26.05;;;13.75;;
11328;SDS011;5719;42.714;23.732;2024-03-07T01:17:54;28.90;;;14.90;;
11328;SDS011;5719;42.714;23.732;2024-03-07T01:20:21;27.73;;;14.02;;
11328;SDS011;5719;42.714;23.732;2024-03-07T01:22:50;26.10;;;13.95;;
11328;SDS011;5719;42.714;23.732;2024-03-07T01:25:18;26.05;;;14.00;;
11328;SDS011;5719;42.714;23.732;2024-03-07T01:27:46;25.20;;;13.52;;
11328;SDS011;5719;42.714;23.732;2024-03-07T01:30:14;22.75;;;14.00;;
11328;SDS011;5719;42.714;23.732;2024-03-07T01:32:41;24.15;;;14.05;;
11328;SDS011;5719;42.714;23.732;2024-03-07T01:35:08;24.80;;;14.52;;
11328;SDS011;5719;42.714;23.732;2024-03-07T01:37:35;25.90;;;15.25;;
11328;SDS011;5719;42.714;23.732;2024-03-07T01:40:02;29.35;;;16.05;;
11328;SDS011;5719;42.714;23.732;2024-03-07T01:42:31;27.08;;;15.70;;
11328;SDS011;5719;42.714;23.732;2024-03-07T01:44:58;28.10;;;16.17;;
11328;SDS011;5719;42.714;23.732;2024-03-07T01:47:25;31.73;;;16.15;;
11328;SDS011;5719;42.714;23.732;2024-03-07T01:49:52;26.63;;;15.32;;
11328;SDS011;5719;42.714;23.732;2024-03-07T01:52:19;26.45;;;15.27;;
11328;SDS011;5719;42.714;23.732;2024-03-07T01:54:47;28.08;;;15.77;;
11328;SDS011;5719;42.714;23.732;2024-03-07T01:57:15;27.35;;;15.18;;
11328;SDS011;5719;42.714;23.732;2024-03-07T01:59:44;28.35;;;16.70;;
11328;SDS011;5719;42.714;23.732;2024-03-07T02:02:11;24.48;;;15.90;;
11328;SDS011;5719;42.714;23.732;2024-03-07T02:04:38;26.15;;;16.80;;
11328;SDS011;5719;42.714;23.732;2024-03-07T02:07:05;26.90;;;16.35;;
11328;SDS011;5719;42.714;23.732;2024-03-07T02:09:36;29.38;;;16.73;;
11328;SDS011;5719;42.714;23.732;2024-03-07T02:12:03;26.60;;;16.40;;
11328;SDS011;5719;42.714;23.732;2024-03-07T02:14:30;27.52;;;16.45;;
11328;SDS011;5719;42.714;23.732;2024-03-07T02:16:58;32.47;;;17.40;;
11328;SDS011;5719;42.714;23.732;2024-03-07T02:19:25;27.77;;;17.42;;
11328;SDS011;5719;42.714;23.732;2024-03-07T02:21:53;27.27;;;16.60;;
11328;SDS011;5719;42.714;23.732;2024-03-07T02:24:20;25.85;;;17.35;;
11328;SDS011;5719;42.714;23.732;2024-03-07T02:26:47;27.45;;;17.30;;
11328;SDS011;5719;42.714;23.732;2024-03-07T02:29:14;28.60;;;17.33;;
11328;SDS011;5719;42.714;23.732;2024-03-07T02:31:40;29.55;;;17.52;;
11328;SDS011;5719;42.714;23.732;2024-03-07T02:34:07;29.88;;;16.73;;
11328;SDS011;5719;42.714;23.732;2024-03-07T02:36:34;27.63;;;16.98;;
11328;SDS011;5719;42.714;23.732;2024-03-07T02:39:02;29.77;;;17.65;;
11328;SDS011;5719;42.714;23.732;2024-03-07T02:41:29;34.38;;;17.75;;
11328;SDS011;5719;42.714;23.732;2024-03-07T02:43:56;36.42;;;17.27;;
11328;SDS011;5719;42.714;23.732;2024-03-07T02:46:23;28.38;;;17.35;;
11328;SDS011;5719;42.714;23.732;2024-03-07T02:48:50;28.27;;;16.63;;
11328;SDS011;5719;42.714;23.732;2024-03-07T02:51:16;29.65;;;15.88;;
11328;SDS011;5719;42.714;23.732;2024-03-07T02:53:43;34.28;;;17.00;;
11328;SDS011;5719;42.714;23.732;2024-03-07T02:56:11;26.33;;;16.92;;
11328;SDS011;5719;42.714;23.732;2024-03-07T02:58:38;29.88;;;16.88;;
11328;SDS011;5719;42.714;23.732;2024-03-07T03:01:06;26.40;;;15.23;;
11328;SDS011;5719;42.714;23.732;2024-03-07T03:03:33;24.67;;;14.95;;
11328;SDS011;5719;42.714;23.732;2024-03-07T03:05:59;26.42;;;15.93;;
11328;SDS011;5719;42.714;23.732;2024-03-07T03:08:26;31.73;;;17.08;;
11328;SDS011;5719;42.714;23.732;2024-03-07T03:10:54;26.05;;;15.32;;
11328;SDS011;5719;42.714;23.732;2024-03-07T03:13:23;22.90;;;13.93;;
11328;SDS011;5719;42.714;23.732;2024-03-07T03:15:52;17.20;;;10.95;;
11328;SDS011;5719;42.714;23.732;2024-03-07T03:18:20;16.65;;;10.98;;
11328;SDS011;5719;42.714;23.732;2024-03-07T03:20:47;18.08;;;10.10;;
11328;SDS011;5719;42.714;23.732;2024-03-07T03:23:14;18.13;;;10.73;;
11328;SDS011;5719;42.714;23.732;2024-03-07T03:25:41;15.40;;;10.15;;
11328;SDS011;5719;42.714;23.732;2024-03-07T03:28:08;15.15;;;9.73;;
11328;SDS011;5719;42.714;23.732;2024-03-07T03:30:37;16.42;;;9.93;;
11328;SDS011;5719;42.714;23.732;2024-03-07T03:33:04;17.27;;;8.95;;
11328;SDS011;5719;42.714;23.732;2024-03-07T03:35:31;10.55;;;7.95;;
11328;SDS011;5719;42.714;23.732;2024-03-07T03:37:58;13.02;;;8.60;;
11328;SDS011;5719;42.714;23.732;2024-03-07T03:40:26;14.00;;;8.23;;
11328;SDS011;5719;42.714;23.732;2024-03-07T03:42:53;10.73;;;7.78;;
11328;SDS011;5719;42.714;23.732;2024-03-07T03:45:20;10.35;;;7.68;;
11328;SDS011;5719;42.714;23.732;2024-03-07T03:47:48;10.50;;;7.53;;
11328;SDS011;5719;42.714;23.732;2024-03-07T03:50:15;10.23;;;7.47;;
11328;SDS011;5719;42.714;23.732;2024-03-07T03:52:43;9.50;;;7.30;;
11328;SDS011;5719;42.714;23.732;2024-03-07T03:55:10;9.63;;;7.22;;
11328;SDS011;5719;42.714;23.732;2024-03-07T03:57:38;9.48;;;6.72;;
11328;SDS011;5719;42.714;23.732;2024-03-07T04:00:06;9.07;;;5.70;;
11328;SDS011;5719;42.714;23.732;2024-03-07T04:02:38;5.97;;;4.30;;
11328;SDS011;5719;42.714;23.732;2024-03-07T04:05:07;5.30;;;4.35;;
11328;SDS011;5719;42.714;23.732;2024-03-07T04:07:35;6.95;;;4.50;;
11328;SDS011;5719;42.714;23.732;2024-03-07T04:10:02;4.10;;;3.72;;
11328;SDS011;5719;42.714;23.732;2024-03-07T04:12:32;5.13;;;4.10;;
11328;SDS011;5719;42.714;23.732;2024-03-07T04:14:59;5.60;;;4.00;;
11328;SDS011;5719;42.714;23.732;2024-03-07T04:17:26;3.80;;;3.50;;
11328;SDS011;5719;42.714;23.732;2024-03-07T04:19:53;4.90;;;3.92;;
11328;SDS011;5719;42.714;23.732;2024-03-07T04:22:21;6.15;;;3.92;;
11328;SDS011;5719;42.714;23.732;2024-03-07T04:24:48;5.03;;;3.67;;
11328;SDS011;5719;42.714;23.732;2024-03-07T04:27:19;3.83;;;3.50;;
11328;SDS011;5719;42.714;23.732;2024-03-07T04:29:47;5.07;;;3.83;;
11328;SDS011;5719;42.714;23.732;2024-03-07T04:32:14;5.32;;;3.85;;
11328;SDS011;5719;42.714;23.732;2024-03-07T04:34:42;6.13;;;4.60;;
11328;SDS011;5719;42.714;23.732;2024-03-07T04:37:09;5.68;;;4.45;;
11328;SDS011;5719;42.714;23.732;2024-03-07T04:39:38;5.70;;;4.28;;
11328;SDS011;5719;42.714;23.732;2024-03-07T04:42:05;5.38;;;4.22;;
11328;SDS011;5719;42.714;23.732;2024-03-07T04:44:33;5.75;;;4.38;;
11328;SDS011;5719;42.714;23.732;2024-03-07T04:47:01;4.13;;;3.72;;
11328;SDS011;5719;42.714;23.732;2024-03-07T04:49:30;6.25;;;3.78;;
11328;SDS011;5719;42.714;23.732;2024-03-07T04:51:58;5.53;;;3.53;;
11328;SDS011;5719;42.714;23.732;2024-03-07T04:54:26;2.90;;;2.70;;
11328;SDS011;5719;42.714;23.732;2024-03-07T04:56:55;4.28;;;2.90;;
11328;SDS011;5719;42.714;23.732;2024-03-07T04:59:22;3.28;;;2.97;;
11328;SDS011;5719;42.714;23.732;2024-03-07T05:01:49;3.88;;;3.58;;
11328;SDS011;5719;42.714;23.732;2024-03-07T05:04:16;4.13;;;3.35;;
11328;SDS011;5719;42.714;23.732;2024-03-07T05:06:44;5.65;;;4.10;;
11328;SDS011;5719;42.714;23.732;2024-03-07T05:09:13;4.65;;;3.95;;
11328;SDS011;5719;42.714;23.732;2024-03-07T05:11:48;3.50;;;3.20;;
11328;SDS011;5719;42.714;23.732;2024-03-07T05:14:18;3.47;;;3.17;;
11328;SDS011;5719;42.714;23.732;2024-03-07T05:16:45;3.38;;;3.08;;
11328;SDS011;5719;42.714;23.732;2024-03-07T05:19:27;2.92;;;2.70;;
11328;SDS011;5719;42.714;23.732;2024-03-07T05:21:54;3.10;;;2.85;;
11328;SDS011;5719;42.714;23.732;2024-03-07T05:24:21;2.90;;;2.70;;
11328;SDS011;5719;42.714;23.732;2024-03-07T05:26:48;4.45;;;3.13;;
11328;SDS011;5719;42.714;23.732;2024-03-07T05:29:15;3.33;;;3.03;;
11328;SDS011;5719;42.714;23.732;2024-03-07T05:31:44;3.47;;;2.95;;
11328;SDS011;5719;42.714;23.732;2024-03-07T05:34:12;3.13;;;2.88;;
11328;SDS011;5719;42.714;23.732;2024-03-07T05:36:39;3.20;;;2.85;;
11328;SDS011;5719;42.714;23.732;2024-03-07T05:39:09;2.80;;;2.60;;
11328;SDS011;5719;42.714;23.732;2024-03-07T05:41:36;2.70;;;2.50;;
11328;SDS011;5719;42.714;23.732;2024-03-07T05:44:03;2.90;;;2.70;;
11328;SDS011;5719;42.714;23.732;2024-03-07T05:46:33;2.50;;;2.30;;
11328;SDS011;5719;42.714;23.732;2024-03-07T05:49:01;2.08;;;1.85;;
11328;SDS011;5719;42.714;23.732;2024-03-07T05:51:29;2.42;;;2.22;;
11328;SDS011;5719;42.714;23.732;2024-03-07T05:53:55;2.30;;;2.10;;
11328;SDS011;5719;42.714;23.732;2024-03-07T05:56:22;2.28;;;2.00;;
11328;SDS011;5719;42.714;23.732;2024-03-07T05:58:49;3.45;;;2.15;;
11328;SDS011;5719;42.714;23.732;2024-03-07T06:01:16;2.17;;;2.08;;
11328;SDS011;5719;42.714;23.732;2024-03-07T06:03:43;2.47;;;2.10;;
11328;SDS011;5719;42.714;23.732;2024-03-07T06:06:11;2.00;;;1.90;;
11328;SDS011;5719;42.714;23.732;2024-03-07T06:08:38;3.58;;;2.20;;
11328;SDS011;5719;42.714;23.732;2024-03-07T06:11:08;1.70;;;1.60;;
11328;SDS011;5719;42.714;23.732;2024-03-07T06:13:35;2.05;;;1.95;;
11328;SDS011;5719;42.714;23.732;2024-03-07T06:16:02;2.10;;;1.90;;
11328;SDS011;5719;42.714;23.732;2024-03-07T06:18:33;1.90;;;1.80;;
11328;SDS011;5719;42.714;23.732;2024-03-07T06:21:00;1.73;;;1.63;;
11328;SDS011;5719;42.714;23.732;2024-03-07T06:23:30;2.13;;;2.03;;
11328;SDS011;5719;42.714;23.732;2024-03-07T06:25:57;1.90;;;1.80;;
11328;SDS011;5719;42.714;23.732;2024-03-07T06:28:26;1.67;;;1.58;;
11328;SDS011;5719;42.714;23.732;2024-03-07T06:30:54;1.90;;;1.80;;
11328;SDS011;5719;42.714;23.732;2024-03-07T06:33:24;2.05;;;1.95;;
11328;SDS011;5719;42.714;23.732;2024-03-07T06:35:51;2.40;;;1.80;;
11328;SDS011;5719;42.714;23.732;2024-03-07T06:38:18;2.20;;;1.98;;
11328;SDS011;5719;42.714;23.732;2024-03-07T06:40:47;1.75;;;1.60;;
11328;SDS011;5719;42.714;23.732;2024-03-07T06:43:14;1.70;;;1.60;;
11328;SDS011;5719;42.714;23.732;2024-03-07T06:45:41;2.08;;;1.30;;
11328;SDS011;5719;42.714;23.732;2024-03-07T06:48:08;1.52;;;1.42;;
11328;SDS011;5719;42.714;23.732;2024-03-07T06:50:35;1.38;;;1.38;;
11328;SDS011;5719;42.714;23.732;2024-03-07T06:53:02;1.50;;;1.40;;
11328;SDS011;5719;42.714;23.732;2024-03-07T06:55:29;1.60;;;1.50;;
11328;SDS011;5719;42.714;23.732;2024-03-07T06:57:57;1.65;;;1.55;;
11328;SDS011;5719;42.714;23.732;2024-03-07T07:00:24;1.05;;;1.05;;
11328;SDS011;5719;42.714;23.732;2024-03-07T07:02:51;1.20;;;1.20;;
11328;SDS011;5719;42.714;23.732;2024-03-07T07:05:19;1.10;;;1.10;;
11328;SDS011;5719;42.714;23.732;2024-03-07T07:07:46;1.13;;;1.10;;
11328;SDS011;5719;42.714;23.732;2024-03-07T07:10:13;1.15;;;1.00;;
11328;SDS011;5719;42.714;23.732;2024-03-07T07:12:43;1.48;;;1.38;;
11328;SDS011;5719;42.714;23.732;2024-03-07T07:15:13;1.00;;;1.00;;
11328;SDS011;5719;42.714;23.732;2024-03-07T07:17:40;1.40;;;1.30;;
11328;SDS011;5719;42.714;23.732;2024-03-07T07:20:10;1.42;;;1.33;;
11328;SDS011;5719;42.714;23.732;2024-03-07T07:22:40;1.38;;;1.38;;
11328;SDS011;5719;42.714;23.732;2024-03-07T07:25:07;0.90;;;0.90;;
11328;SDS011;5719;42.714;23.732;2024-03-07T07:27:39;1.00;;;1.00;;
11328;SDS011;5719;42.714;23.732;2024-03-07T07:30:08;1.35;;;1.30;;
11328;SDS011;5719;42.714;23.732;2024-03-07T07:32:37;1.42;;;1.40;;
11328;SDS011;5719;42.714;23.732;2024-03-07T07:35:04;1.45;;;1.35;;
11328;SDS011;5719;42.714;23.732;2024-03-07T07:37:34;1.60;;;1.50;;
11328;SDS011;5719;42.714;23.732;2024-03-07T07:40:03;1.45;;;1.40;;
11328;SDS011;5719;42.714;23.732;2024-03-07T07:42:33;1.85;;;1.75;;
11328;SDS011;5719;42.714;23.732;2024-03-07T07:45:00;1.83;;;1.73;;
11328;SDS011;5719;42.714;23.732;2024-03-07T07:47:26;1.95;;;1.85;;
11328;SDS011;5719;42.714;23.732;2024-03-07T07:49:55;2.42;;;2.17;;
11328;SDS011;5719;42.714;23.732;2024-03-07T07:52:21;2.33;;;2.22;;
11328;SDS011;5719;42.714;23.732;2024-03-07T07:54:48;3.00;;;2.80;;
11328;SDS011;5719;42.714;23.732;2024-03-07T07:57:15;3.35;;;3.08;;
11328;SDS011;5719;42.714;23.732;2024-03-07T07:59:42;4.50;;;3.70;;
11328;SDS011;5719;42.714;23.732;2024-03-07T08:02:08;3.63;;;3.33;;
11328;SDS011;5719;42.714;23.732;2024-03-07T08:04:36;3.60;;;3.30;;
11328;SDS011;5719;42.714;23.732;2024-03-07T08:07:05;4.85;;;3.75;;
11328;SDS011;5719;42.714;23.732;2024-03-07T08:09:32;4.50;;;3.50;;
11328;SDS011;5719;42.714;23.732;2024-03-07T08:11:59;3.97;;;3.53;;
11328;SDS011;5719;42.714;23.732;2024-03-07T08:14:27;3.72;;;3.22;;
11328;SDS011;5719;42.714;23.732;2024-03-07T08:16:54;3.75;;;3.38;;
11328;SDS011;5719;42.714;23.732;2024-03-07T08:19:21;3.85;;;3.55;;
11328;SDS011;5719;42.714;23.732;2024-03-07T08:21:48;4.32;;;3.90;;
11328;SDS011;5719;42.714;23.732;2024-03-07T08:24:16;4.25;;;3.70;;
11328;SDS011;5719;42.714;23.732;2024-03-07T08:26:43;4.30;;;3.65;;
11328;SDS011;5719;42.714;23.732;2024-03-07T08:29:11;4.80;;;4.20;;
11328;SDS011;5719;42.714;23.732;2024-03-07T08:31:38;3.47;;;3.17;;
11328;SDS011;5719;42.714;23.732;2024-03-07T08:34:05;3.72;;;3.40;;
11328;SDS011;5719;42.714;23.732;2024-03-07T08:36:32;3.88;;;3.47;;
11328;SDS011;5719;42.714;23.732;2024-03-07T08:38:59;3.25;;;2.95;;
11328;SDS011;5719;42.714;23.732;2024-03-07T08:41:27;2.45;;;2.25;;
11328;SDS011;5719;42.714;23.732;2024-03-07T08:43:54;1.98;;;1.88;;
11328;SDS011;5719;42.714;23.732;2024-03-07T08:46:21;2.33;;;1.63;;
11328;SDS011;5719;42.714;23.732;2024-03-07T08:48:48;1.60;;;1.50;;
11328;SDS011;5719;42.714;23.732;2024-03-07T08:51:15;1.77;;;1.67;;
11328;SDS011;5719;42.714;23.732;2024-03-07T08:53:42;2.60;;;2.40;;
11328;SDS011;5719;42.714;23.732;2024-03-07T08:56:09;2.55;;;2.35;;
11328;SDS011;5719;42.714;23.732;2024-03-07T08:58:37;2.42;;;2.30;;
11328;SDS011;5719;42.714;23.732;2024-03-07T09:01:04;2.42;;;2.28;;
11328;SDS011;5719;42.714;23.732;2024-03-07T09:03:31;2.42;;;2.22;;
11328;SDS011;5719;42.714;23.732;2024-03-07T09:05:58;2.55;;;2.35;;
11328;SDS011;5719;42.714;23.732;2024-03-07T09:08:25;2.60;;;2.40;;
11328;SDS011;5719;42.714;23.732;2024-03-07T09:10:51;3.08;;;2.88;;
11328;SDS011;5719;42.714;23.732;2024-03-07T09:13:20;2.67;;;2.50;;
11328;SDS011;5719;42.714;23.732;2024-03-07T09:15:48;3.08;;;2.78;;
11328;SDS011;5719;42.714;23.732;2024-03-07T09:18:15;3.28;;;3.08;;
11328;SDS011;5719;42.714;23.732;2024-03-07T09:20:42;3.22;;;3.03;;
11328;SDS011;5719;42.714;23.732;2024-03-07T09:23:08;3.42;;;3.22;;
11328;SDS011;5719;42.714;23.732;2024-03-07T09:25:35;3.40;;;3.10;;
11328;SDS011;5719;42.714;23.732;2024-03-07T09:28:02;3.75;;;3.35;;
11328;SDS011;5719;42.714;23.732;2024-03-07T09:30:30;3.58;;;3.28;;
11328;SDS011;5719;42.714;23.732;2024-03-07T09:32:58;3.80;;;3.50;;
11328;SDS011;5719;42.714;23.732;2024-03-07T09:35:26;4.63;;;4.22;;
11328;SDS011;5719;42.714;23.732;2024-03-07T09:37:53;3.92;;;3.58;;
11328;SDS011;5719;42.714;23.732;2024-03-07T09:40:21;4.07;;;3.67;;
11328;SDS011;5719;42.714;23.732;2024-03-07T09:42:49;4.10;;;3.80;;
11328;SDS011;5719;42.714;23.732;2024-03-07T09:45:18;3.90;;;3.60;;
11328;SDS011;5719;42.714;23.732;2024-03-07T09:47:48;4.00;;;3.70;;
11328;SDS011;5719;42.714;23.732;2024-03-07T09:50:18;4.50;;;4.10;;
11328;SDS011;5719;42.714;23.732;2024-03-07T09:52:47;4.10;;;3.80;;
11328;SDS011;5719;42.714;23.732;2024-03-07T09:55:15;5.25;;;4.40;;
11328;SDS011;5719;42.714;23.732;2024-03-07T09:57:42;5.03;;;4.20;;
11328;SDS011;5719;42.714;23.732;2024-03-07T10:00:09;5.30;;;4.80;;
11328;SDS011;5719;42.714;23.732;2024-03-07T10:02:43;4.20;;;3.80;;
11328;SDS011;5719;42.714;23.732;2024-03-07T10:05:12;4.60;;;4.20;;
11328;SDS011;5719;42.714;23.732;2024-03-07T10:07:43;5.55;;;4.10;;
11328;SDS011;5719;42.714;23.732;2024-03-07T10:10:10;5.20;;;4.10;;
11328;SDS011;5719;42.714;23.732;2024-03-07T10:12:37;5.18;;;4.68;;
11328;SDS011;5719;42.714;23.732;2024-03-07T10:15:05;5.13;;;4.22;;
11328;SDS011;5719;42.714;23.732;2024-03-07T10:17:35;4.57;;;4.10;;
11328;SDS011;5719;42.714;23.732;2024-03-07T10:20:03;4.63;;;4.18;;
11328;SDS011;5719;42.714;23.732;2024-03-07T10:22:34;6.63;;;5.05;;
11328;SDS011;5719;42.714;23.732;2024-03-07T10:25:03;4.68;;;4.28;;
11328;SDS011;5719;42.714;23.732;2024-03-07T10:27:30;5.47;;;4.65;;
11328;SDS011;5719;42.714;23.732;2024-03-07T10:29:57;5.72;;;4.80;;
11328;SDS011;5719;42.714;23.732;2024-03-07T10:32:24;5.72;;;4.70;;
11328;SDS011;5719;42.714;23.732;2024-03-07T10:34:51;5.40;;;4.90;;
11328;SDS011;5719;42.714;23.732;2024-03-07T10:37:19;5.28;;;4.72;;
11328;SDS011;5719;42.714;23.732;2024-03-07T10:39:47;5.88;;;4.47;;
11328;SDS011;5719;42.714;23.732;2024-03-07T10:42:16;5.03;;;4.53;;
11328;SDS011;5719;42.714;23.732;2024-03-07T10:44:44;5.68;;;4.82;;
11328;SDS011;5719;42.714;23.732;2024-03-07T10:47:15;5.20;;;4.70;;
11328;SDS011;5719;42.714;23.732;2024-03-07T10:49:46;7.47;;;4.45;;
11328;SDS011;5719;42.714;23.732;2024-03-07T10:52:23;5.55;;;4.90;;
11328;SDS011;5719;42.714;23.732;2024-03-07T10:55:03;5.00;;;4.43;;
11328;SDS011;5719;42.714;23.732;2024-03-07T11:00:12;4.65;;;4.15;;
11328;SDS011;5719;42.714;23.732;2024-03-07T11:02:55;4.40;;;4.00;;
11328;SDS011;5719;42.714;23.732;2024-03-07T11:05:23;4.70;;;3.50;;
11328;SDS011;5719;42.714;23.732;2024-03-07T11:07:55;3.92;;;3.60;;
11328;SDS011;5719;42.714;23.732;2024-03-07T11:10:24;6.43;;;3.78;;
11328;SDS011;5719;42.714;23.732;2024-03-07T11:12:52;4.05;;;3.75;;
11328;SDS011;5719;42.714;23.732;2024-03-07T11:15:21;4.25;;;3.85;;
11328;SDS011;5719;42.714;23.732;2024-03-07T11:17:51;4.57;;;4.18;;
11328;SDS011;5719;42.714;23.732;2024-03-07T11:20:20;6.55;;;3.78;;
11328;SDS011;5719;42.714;23.732;2024-03-07T11:22:48;4.30;;;3.90;;
11328;SDS011;5719;42.714;23.732;2024-03-07T11:25:17;3.80;;;3.50;;
11328;SDS011;5719;42.714;23.732;2024-03-07T11:27:56;4.10;;;3.70;;
11328;SDS011;5719;42.714;23.732;2024-03-07T11:30:25;3.47;;;3.17;;
11328;SDS011;5719;42.714;23.732;2024-03-07T11:32:52;4.00;;;3.60;;
11328;SDS011;5719;42.714;23.732;2024-03-07T11:35:20;4.65;;;3.30;;
11328;SDS011;5719;42.714;23.732;2024-03-07T11:37:55;5.22;;;4.00;;
11328;SDS011;5719;42.714;23.732;2024-03-07T11:43:16;3.97;;;3.67;;
11328;SDS011;5719;42.714;23.732;2024-03-07T11:45:43;4.53;;;4.05;;
11328;SDS011;5719;42.714;23.732;2024-03-07T11:48:17;4.88;;;4.47;;
11328;SDS011;5719;42.714;23.732;2024-03-07T11:50:45;4.50;;;4.10;;
11328;SDS011;5719;42.714;23.732;2024-03-07T11:53:14;4.97;;;4.55;;
11328;SDS011;5719;42.714;23.732;2024-03-07T11:55:41;4.57;;;4.03;;
11328;SDS011;5719;42.714;23.732;2024-03-07T11:58:09;4.70;;;4.20;;
11328;SDS011;5719;42.714;23.732;2024-03-07T12:00:39;5.82;;;4.95;;
11328;SDS011;5719;42.714;23.732;2024-03-07T12:03:10;6.10;;;4.78;;
11328;SDS011;5719;42.714;23.732;2024-03-07T12:05:39;6.45;;;5.50;;
11328;SDS011;5719;42.714;23.732;2024-03-07T12:08:06;7.38;;;5.90;;
11328;SDS011;5719;42.714;23.732;2024-03-07T12:10:35;6.15;;;5.25;;
11328;SDS011;5719;42.714;23.732;2024-03-07T12:13:04;6.63;;;5.53;;
11328;SDS011;5719;42.714;23.732;2024-03-07T12:15:32;6.78;;;5.75;;
11328;SDS011;5719;42.714;23.732;2024-03-07T12:18:02;5.60;;;4.93;;
11328;SDS011;5719;42.714;23.732;2024-03-07T12:20:34;5.72;;;4.82;;
11328;SDS011;5719;42.714;23.732;2024-03-07T12:23:06;4.72;;;4.20;;
11328;SDS011;5719;42.714;23.732;2024-03-07T12:25:34;4.55;;;4.13;;
11328;SDS011;5719;42.714;23.732;2024-03-07T12:28:02;4.10;;;3.70;;
11328;SDS011;5719;42.714;23.732;2024-03-07T12:30:35;4.22;;;3.75;;
11328;SDS011;5719;42.714;23.732;2024-03-07T12:33:06;3.65;;;3.35;;
11328;SDS011;5719;42.714;23.732;2024-03-07T12:35:33;6.03;;;3.65;;
11328;SDS011;5719;42.714;23.732;2024-03-07T12:38:01;5.55;;;4.60;;
11328;SDS011;5719;42.714;23.732;2024-03-07T12:40:28;5.47;;;4.57;;
11328;SDS011;5719;42.714;23.732;2024-03-07T12:42:59;5.43;;;3.95;;
11328;SDS011;5719;42.714;23.732;2024-03-07T12:45:27;4.45;;;4.00;;
11328;SDS011;5719;42.714;23.732;2024-03-07T12:47:58;4.60;;;4.00;;
11328;SDS011;5719;42.714;23.732;2024-03-07T12:50:30;5.25;;;4.45;;
11328;SDS011;5719;42.714;23.732;2024-03-07T12:53:00;4.05;;;3.65;;
11328;SDS011;5719;42.714;23.732;2024-03-07T12:55:30;4.18;;;3.30;;
11328;SDS011;5719;42.714;23.732;2024-03-07T12:57:57;4.00;;;3.60;;
11328;SDS011;5719;42.714;23.732;2024-03-07T13:00:24;3.90;;;3.45;;
11328;SDS011;5719;42.714;23.732;2024-03-07T13:02:51;4.70;;;3.53;;
11328;SDS011;5719;42.714;23.732;2024-03-07T13:05:21;3.60;;;3.30;;
11328;SDS011;5719;42.714;23.732;2024-03-07T13:07:50;4.07;;;3.67;;
11328;SDS011;5719;42.714;23.732;2024-03-07T13:10:17;4.20;;;3.75;;
11328;SDS011;5719;42.714;23.732;2024-03-07T13:12:45;5.40;;;3.97;;
11328;SDS011;5719;42.714;23.732;2024-03-07T13:15:14;4.32;;;3.67;;
11328;SDS011;5719;42.714;23.732;2024-03-07T13:17:41;3.92;;;3.53;;
11328;SDS011;5719;42.714;23.732;2024-03-07T13:20:08;3.90;;;3.50;;
11328;SDS011;5719;42.714;23.732;2024-03-07T13:22:40;3.13;;;2.90;;
11328;SDS011;5719;42.714;23.732;2024-03-07T13:25:10;3.40;;;3.10;;
11328;SDS011;5719;42.714;23.732;2024-03-07T13:27:43;3.30;;;3.00;;
11328;SDS011;5719;42.714;23.732;2024-03-07T13:30:20;3.92;;;3.40;;
11328;SDS011;5719;42.714;23.732;2024-03-07T13:32:52;3.40;;;3.10;;
11328;SDS011;5719;42.714;23.732;2024-03-07T13:35:19;3.58;;;3.22;;
11328;SDS011;5719;42.714;23.732;2024-03-07T13:37:47;3.53;;;3.22;;
11328;SDS011;5719;42.714;23.732;2024-03-07T13:40:16;3.83;;;3.40;;
11328;SDS011;5719;42.714;23.732;2024-03-07T13:42:49;3.58;;;3.28;;
11328;SDS011;5719;42.714;23.732;2024-03-07T13:45:20;3.38;;;3.08;;
11328;SDS011;5719;42.714;23.732;2024-03-07T13:47:48;4.53;;;2.67;;
11328;SDS011;5719;42.714;23.732;2024-03-07T13:50:17;3.35;;;3.05;;
11328;SDS011;5719;42.714;23.732;2024-03-07T13:52:47;3.30;;;3.00;;
11328;SDS011;5719;42.714;23.732;2024-03-07T13:55:30;3.38;;;3.13;;
11328;SDS011;5719;42.714;23.732;2024-03-07T13:57:58;3.17;;;2.88;;
11328;SDS011;5719;42.714;23.732;2024-03-07T14:00:36;3.25;;;3.00;;
11328;SDS011;5719;42.714;23.732;2024-03-07T14:03:19;3.10;;;2.90;;
11328;SDS011;5719;42.714;23.732;2024-03-07T14:06:00;4.15;;;3.03;;
11328;SDS011;5719;42.714;23.732;2024-03-07T14:11:40;3.35;;;2.80;;
11328;SDS011;5719;42.714;23.732;2024-03-07T14:14:40;2.58;;;2.38;;
11328;SDS011;5719;42.714;23.732;2024-03-07T14:23:19;3.08;;;2.80;;
11328;SDS011;5719;42.714;23.732;2024-03-07T14:29:12;2.63;;;2.42;;
11328;SDS011;5719;42.714;23.732;2024-03-07T14:31:47;3.47;;;3.17;;
11328;SDS011;5719;42.714;23.732;2024-03-07T14:34:19;3.72;;;3.28;;
11328;SDS011;5719;42.714;23.732;2024-03-07T14:37:03;3.20;;;2.97;;
11328;SDS011;5719;42.714;23.732;2024-03-07T14:39:36;3.15;;;2.95;;
11328;SDS011;5719;42.714;23.732;2024-03-07T14:42:05;5.47;;;3.22;;
11328;SDS011;5719;42.714;23.732;2024-03-07T14:44:36;4.07;;;3.22;;
11328;SDS011;5719;42.714;23.732;2024-03-07T14:47:05;3.38;;;3.08;;
11328;SDS011;5719;42.714;23.732;2024-03-07T14:49:36;3.47;;;3.17;;
11328;SDS011;5719;42.714;23.732;2024-03-07T14:52:05;3.92;;;3.63;;
11328;SDS011;5719;42.714;23.732;2024-03-07T14:54:36;4.78;;;4.25;;
11328;SDS011;5719;42.714;23.732;2024-03-07T14:57:04;3.80;;;3.50;;
11328;SDS011;5719;42.714;23.732;2024-03-07T14:59:32;4.35;;;3.95;;
11328;SDS011;5719;42.714;23.732;2024-03-07T15:02:00;4.05;;;3.60;;
11328;SDS011;5719;42.714;23.732;2024-03-07T15:04:29;5.13;;;4.10;;
11328;SDS011;5719;42.714;23.732;2024-03-07T15:06:59;4.07;;;3.70;;